This is the latest recevied weather packets stored in our database for station/object TG6YMD-19. If no packets are shown the sender has not sent any weather packets the latest 10 day(s).
| Time | Temp. | Humidity | Pressure | Rain* | Wind** | Luminosity | Snow |
|---|---|---|---|---|---|---|---|
| 1778012883 | 39.44° C | 22% | 1008 hPa | 0 mm | - | - | - |
| 1778012282 | 39.44° C | 22% | 1008 hPa | 0 mm | - | - | - |
| 1778011682 | 39.44° C | 22% | 1008 hPa | 0 mm | - | - | - |
| 1778011081 | 36.67° C | 33% | 1008 hPa | 0 mm | - | - | - |
| 1778010480 | 37.22° C | 33% | 1008 hPa | 0 mm | - | - | - |
| 1778009880 | 37.78° C | 33% | 1008 hPa | 0 mm | - | - | - |
| 1778009279 | 35° C | 36% | 1009 hPa | 0 mm | - | - | - |
| 1778008679 | 35.56° C | 36% | 1009 hPa | 0 mm | - | - | - |
| 1778008078 | 36.11° C | 36% | 1009 hPa | 0 mm | - | - | - |
| 1778007477 | 36.67° C | 36% | 1009 hPa | 0 mm | - | - | - |
| 1778006877 | 36.67° C | 36% | 1009 hPa | 0 mm | - | - | - |
| 1778006276 | 36.67° C | 36% | 1009 hPa | 0 mm | - | - | - |
| 1778005676 | 36.67° C | 36% | 1011 hPa | 0 mm | - | - | - |
| 1778005075 | 36.67° C | 36% | 1011 hPa | 0 mm | - | - | - |
| 1778004474 | 36.67° C | 36% | 1011 hPa | 0 mm | - | - | - |
| 1778003874 | 35.56° C | 38% | 1011 hPa | 0 mm | - | - | - |
| 1778003273 | 35.56° C | 39% | 1011 hPa | 0 mm | - | - | - |
| 1778002673 | 36.11° C | 39% | 1011 hPa | 0 mm | - | - | - |
| 1778002072 | 33.33° C | 48% | 1012 hPa | 0 mm | - | - | - |
| 1778001472 | 33.89° C | 48% | 1012 hPa | 0 mm | - | - | - |
| 1778000871 | 34.44° C | 48% | 1012 hPa | 0 mm | - | - | - |
| 1777999670 | 33.89° C | 46% | 1012 hPa | 0 mm | - | - | - |
| 1777999069 | 34.44° C | 46% | 1012 hPa | 0 mm | - | - | - |
| 1777998469 | 31.67° C | 57% | 1013 hPa | 0 mm | - | - | - |
| 1777997868 | 32.22° C | 57% | 1013 hPa | 0 mm | - | - | - |
* Rain latest hour (hover to see other rain measurements)
** Current wind speed in m/s (hover to see current wind gust speed)